Aransas Pass — WDF5061 — position and weather

sailwx.info

Track history (hours):
 
Tides and Currents Weather Stations Pressure Air Temp Water Temp Dewpoint Dewpoint Depression Visibility Wind Speed Wind Dir Waves Ship Positions

Aransas Pass

Owner: Higman Barge Lines, Inc., Orange, TX. More information available from US FCC via Universal Licensing System and Coast Guard Vessel Documentation Center.

Last reported at 2015-May-23 15:34 UTC. Time now 2015-May-23 16:29 UTC.
Position N 29°47' W 095°06'.

Length 26 m; draft 3 m.

Type: Towing. MMSI: 367458930.

Date/timePositionNaut miles runAvg speedWind from/ knotsBaromVisibWave heightAir tempDewpointWater temp
2015-May-23 15:34N 29°47' W 095°06'0 0.0
2015-May-23 14:33N 29°47' W 095°06'0 0.0
2015-May-23 13:34N 29°47' W 095°06'0 0.0
2015-May-23 12:28N 29°47' W 095°06'0 0.0
2015-May-23 11:33N 29°47' W 095°06'0 0.0
2015-May-23 10:32N 29°47' W 095°06'0 0.0
2015-May-23 09:32N 29°47' W 095°06'0 0.0
2015-May-23 08:17N 29°47' W 095°06'0 0.0
2015-May-23 07:27N 29°47' W 095°06'0 0.0
2015-May-23 06:29N 29°47' W 095°06'1 1.3
2015-May-23 05:34N 29°46' W 095°05'1 1.2
2015-May-23 04:31N 29°47' W 095°06'0 0.0
2015-May-23 03:33N 29°47' W 095°06'0 0.0
2015-May-23 02:31N 29°47' W 095°06'0 0.0
2015-May-23 01:22N 29°47' W 095°06'0 0.0
2015-May-23 00:29N 29°47' W 095°06'0 0.0
2015-May-22 23:14N 29°47' W 095°06'0 0.0
2015-May-22 22:29N 29°47' W 095°06'0 0.0
2015-May-22 21:32N 29°47' W 095°06'0 0.0
2015-May-22 20:25N 29°47' W 095°06'0 0.0
2015-May-22 19:31N 29°47' W 095°06'0 0.0
2015-May-22 18:28N 29°47' W 095°06'0 0.0
2015-May-22 17:17N 29°47' W 095°06'0 0.0
2015-May-22 16:29N 29°47' W 095°06'0 0.0
2015-May-22 15:21N 29°47' W 095°06'0 0.0
2015-May-22 14:18N 29°47' W 095°06'1 1.6
2015-May-22 13:33N 29°46' W 095°05'1 0.2
2015-May-22 08:33N 29°45' W 095°06'2 1.8
2015-May-22 07:33N 29°47' W 095°06'0 0.0
2015-May-22 06:33N 29°47' W 095°06'0 0.0
2015-May-22 05:32N 29°47' W 095°06'0 0.0
2015-May-22 04:33N 29°47' W 095°06'0 0.0
2015-May-22 03:32N 29°47' W 095°06'0 0.0
2015-May-22 02:33N 29°47' W 095°06'0 0.0
2015-May-22 01:33N 29°47' W 095°06'1 1.3
2015-May-22 00:33N 29°46' W 095°06'0 0.0
2015-May-21 23:33N 29°45' W 095°06'0 0.0
2015-May-21 22:33N 29°45' W 095°06'0 0.0
2015-May-21 21:33N 29°45' W 095°06'1 0.9
2015-May-21 20:20N 29°45' W 095°07'2 0.2
2015-May-21 09:06N 29°47' W 095°06'0 0.0
2015-May-21 08:32N 29°47' W 095°06'1 1.0
2015-May-21 07:33N 29°46' W 095°06'1 0.6
2015-May-21 06:33N 29°46' W 095°07'0 0.0
2015-May-21 05:33N 29°46' W 095°07'3 3.1
2015-May-21 04:33N 29°45' W 095°10'0 0.0
2015-May-21 03:33N 29°44' W 095°10'0 0.0
2015-May-21 02:33N 29°44' W 095°10'0 0.0
2015-May-21 01:33N 29°44' W 095°10'0 0.0
2015-May-21 00:33N 29°44' W 095°10'0 0.0
2015-May-20 23:33N 29°44' W 095°10'0 0.0
2015-May-20 22:33N 29°44' W 095°10'0 0.0
2015-May-20 21:33N 29°44' W 095°10'0 0.0
2015-May-20 20:33N 29°44' W 095°10'0 0.0
2015-May-20 19:33N 29°44' W 095°10'0 0.0
2015-May-20 18:33N 29°44' W 095°10'0 0.0
2015-May-20 17:33N 29°45' W 095°10'0 0.0
2015-May-20 16:33N 29°45' W 095°10'0 0.0
2015-May-20 15:33N 29°45' W 095°10'0 0.0
2015-May-20 14:33N 29°45' W 095°10'0 0.0
2015-May-20 13:33N 29°44' W 095°10'0 0.0
2015-May-20 12:33N 29°44' W 095°10'0 0.0
2015-May-20 11:33N 29°44' W 095°10'0 0.0
2015-May-20 10:33N 29°44' W 095°10'0 0.0
2015-May-20 09:33N 29°44' W 095°10'0 0.0
2015-May-20 08:33N 29°44' W 095°10'0 0.0
2015-May-20 07:33N 29°44' W 095°10'0 0.0
2015-May-20 06:33N 29°44' W 095°10'0 0.0
2015-May-20 05:33N 29°45' W 095°10'0 0.0
2015-May-20 04:33N 29°45' W 095°10'0 0.0
2015-May-20 03:33N 29°45' W 095°10'0 0.0
2015-May-20 02:33N 29°45' W 095°10'1 1.4
2015-May-20 01:33N 29°44' W 095°08'0 0.0
2015-May-20 00:33N 29°44' W 095°08'0 0.0
2015-May-19 23:33N 29°44' W 095°08'0 0.0
2015-May-19 22:33N 29°44' W 095°08'0 0.0
2015-May-19 21:33N 29°44' W 095°08'0 0.0
2015-May-19 20:33N 29°44' W 095°08'0 0.0
2015-May-19 19:33N 29°44' W 095°08'0 0.0
2015-May-19 18:33N 29°44' W 095°08'0 0.0
2015-May-19 17:33N 29°44' W 095°08'0 0.0
2015-May-19 16:33N 29°44' W 095°08'0 0.0
2015-May-19 15:33N 29°44' W 095°08'0 0.0
2015-May-19 14:33N 29°44' W 095°08'0 0.2
2015-May-19 13:34N 29°44' W 095°08'0 0.1
2015-May-19 12:33N 29°44' W 095°08'0 0.0
2015-May-19 11:33N 29°44' W 095°08'0 0.0
2015-May-19 10:33N 29°44' W 095°08'0 0.0
2015-May-19 09:33N 29°44' W 095°08'0 0.0
2015-May-19 08:33N 29°44' W 095°08'0 0.0
2015-May-19 07:33N 29°44' W 095°08'0 0.0
2015-May-19 06:33N 29°44' W 095°08'0 0.0
2015-May-19 05:33N 29°44' W 095°08'0 0.0
2015-May-19 04:33N 29°44' W 095°08'0 0.0
2015-May-19 03:33N 29°44' W 095°08'0 0.3
2015-May-19 02:33N 29°44' W 095°08'0 0.4
2015-May-19 01:33N 29°44' W 095°08'0 0.0
2015-May-19 00:33N 29°44' W 095°08'0 0.0
2015-May-18 23:33N 29°44' W 095°08'0 0.0
2015-May-18 22:33N 29°44' W 095°08'0 0.0
2015-May-18 21:33N 29°44' W 095°08'0 0.0
2015-May-18 20:33N 29°44' W 095°08'0 0.0
2015-May-18 19:33N 29°44' W 095°08'0 0.0
2015-May-18 18:33N 29°44' W 095°08'0 0.0
2015-May-18 17:33N 29°44' W 095°08'0 0.0
2015-May-18 16:33N 29°44' W 095°08'0 0.0
2015-May-18 15:33N 29°44' W 095°08'0 0.0
2015-May-18 14:33N 29°44' W 095°08'0 0.0
2015-May-18 13:33N 29°44' W 095°08'0 0.0
2015-May-18 12:33N 29°44' W 095°08'0 0.0
2015-May-18 11:33N 29°44' W 095°08'0 0.0
2015-May-18 10:33N 29°44' W 095°08'0 0.0
2015-May-18 09:33N 29°44' W 095°08'0 0.0
2015-May-18 08:33N 29°44' W 095°08'0 0.0
2015-May-18 07:33N 29°44' W 095°08'0 0.0
2015-May-18 06:33N 29°44' W 095°08'0 0.0
2015-May-18 05:33N 29°44' W 095°08'0 0.0
2015-May-18 04:33N 29°44' W 095°08'0 0.0
2015-May-18 03:33N 29°44' W 095°08'0 0.0
2015-May-18 02:33N 29°44' W 095°08'0 0.0
2015-May-18 01:33N 29°44' W 095°08'0 0.0
2015-May-18 00:33N 29°44' W 095°08'0 0.0
2015-May-17 23:33N 29°44' W 095°08'0 0.0
2015-May-17 22:33N 29°44' W 095°08'0 0.0
2015-May-17 21:33N 29°44' W 095°08'0 0.0
2015-May-17 20:33N 29°44' W 095°08'0 0.0
2015-May-17 19:33N 29°44' W 095°08'0 0.1
2015-May-17 18:33N 29°44' W 095°08'4 3.7
2015-May-17 17:33N 29°47' W 095°05'0 0.4
2015-May-17 16:33N 29°47' W 095°05'0 0.0
2015-May-17 15:33N 29°47' W 095°05'0 0.0
2015-May-17 14:34N 29°47' W 095°05'0 0.0
2015-May-17 13:33N 29°47' W 095°05'0 0.0
2015-May-17 12:33N 29°47' W 095°05'0 0.0
2015-May-17 11:33N 29°47' W 095°05'0 0.0
2015-May-17 10:33N 29°47' W 095°05'0 0.0
2015-May-17 09:33N 29°47' W 095°05'0 0.0
2015-May-17 08:33N 29°47' W 095°05'0 0.0
2015-May-17 07:33N 29°47' W 095°05'0 0.0
2015-May-17 06:33N 29°47' W 095°05'0 0.0
2015-May-17 05:33N 29°47' W 095°05'0 0.0
2015-May-17 04:33N 29°47' W 095°05'0 0.0
2015-May-17 03:33N 29°47' W 095°05'0 0.0
2015-May-17 02:33N 29°47' W 095°05'0 0.0
2015-May-17 01:33N 29°47' W 095°05'0 0.0
2015-May-17 00:33N 29°47' W 095°05'0 0.0
2015-May-16 23:33N 29°47' W 095°05'0 0.0
2015-May-16 22:33N 29°47' W 095°05'0 0.0
2015-May-16 21:33N 29°47' W 095°05'0 0.0
2015-May-16 20:33N 29°47' W 095°05'0 0.0
2015-May-16 19:33N 29°47' W 095°05'0 0.0
2015-May-16 18:33N 29°47' W 095°05'0 0.0
2015-May-16 17:33N 29°47' W 095°05'0 0.0
2015-May-16 16:33N 29°47' W 095°05'0 0.0
2015-May-16 15:33N 29°47' W 095°05'0 0.0
2015-May-16 14:33N 29°47' W 095°05'0 0.0
2015-May-16 13:33N 29°47' W 095°05'0 0.0
2015-May-16 12:33N 29°47' W 095°05'0 0.0
2015-May-16 11:33N 29°47' W 095°05'0 0.0
2015-May-16 10:33N 29°47' W 095°05'0 0.0
2015-May-16 09:33N 29°47' W 095°05'0 0.0
2015-May-16 08:33N 29°47' W 095°05'0 0.0
2015-May-16 07:33N 29°47' W 095°05'0 0.0
2015-May-16 06:33N 29°47' W 095°05'0 0.0
2015-May-16 05:33N 29°47' W 095°05'0 0.0
2015-May-16 04:33N 29°47' W 095°05'0 0.0
2015-May-16 03:33N 29°47' W 095°05'0 0.0
2015-May-16 02:33N 29°47' W 095°05'0 0.0
2015-May-16 01:33N 29°47' W 095°05'0 0.0
2015-May-16 00:33N 29°47' W 095°05'0 0.0
2015-May-15 23:33N 29°47' W 095°05'0 0.0
2015-May-15 22:33N 29°47' W 095°05'0 0.0
2015-May-15 21:33N 29°47' W 095°05'0 0.0
2015-May-15 20:33N 29°47' W 095°05'0 0.0
2015-May-15 19:33N 29°47' W 095°05'0 0.0
2015-May-15 18:33N 29°47' W 095°05'0 0.0
2015-May-15 17:33N 29°47' W 095°05'0 0.0
2015-May-15 16:33N 29°47' W 095°05'0 0.0
2015-May-15 15:33N 29°47' W 095°05'0 0.0
2015-May-15 14:33N 29°47' W 095°05'0 0.0
2015-May-15 13:33N 29°47' W 095°05'0 0.0
2015-May-15 12:33N 29°47' W 095°05'0 0.0
2015-May-15 11:28N 29°47' W 095°05'0 0.0
2015-May-15 10:31N 29°47' W 095°05'0 0.0
2015-May-15 09:33N 29°47' W 095°05'0 0.0
2015-May-15 08:31N 29°47' W 095°05'0 0.0
2015-May-15 07:31N 29°47' W 095°05'0 0.0
2015-May-15 06:29N 29°47' W 095°05'0 0.0
2015-May-15 05:30N 29°47' W 095°05'0 0.0
2015-May-15 04:31N 29°47' W 095°05'0 0.0
2015-May-15 03:33N 29°47' W 095°05'0 0.0
2015-May-15 02:33N 29°47' W 095°05'0 0.0
2015-May-15 01:26N 29°47' W 095°05'0 0.0
2015-May-15 00:32N 29°47' W 095°05'0 0.0
2015-May-14 23:33N 29°47' W 095°05'0 0.0
2015-May-14 22:32N 29°47' W 095°05'0 0.0
2015-May-14 21:33N 29°47' W 095°05'0 0.0
2015-May-14 20:33N 29°47' W 095°05'0 0.0
2015-May-14 19:11N 29°47' W 095°05'0 0.0
2015-May-14 18:32N 29°47' W 095°05'0 0.0
2015-May-14 17:24N 29°47' W 095°05'0 0.0
2015-May-14 16:21N 29°47' W 095°05'0 0.0
2015-May-14 15:31N 29°47' W 095°05'0 0.3
2015-May-14 14:33N 29°47' W 095°05'1 0.6
2015-May-14 13:32N 29°46' W 095°05'1 0.8
2015-May-14 12:31N 29°47' W 095°05'0 0.0
2015-May-14 11:30N 29°47' W 095°05'0 0.0
2015-May-14 10:33N 29°47' W 095°05'0 0.0
2015-May-14 09:33N 29°47' W 095°05'0 0.0
2015-May-14 08:32N 29°47' W 095°05'0 0.0
2015-May-14 07:32N 29°47' W 095°05'0 0.0
2015-May-14 06:33N 29°47' W 095°05'0 0.0
2015-May-14 05:27N 29°47' W 095°05'0 0.0
2015-May-14 04:33N 29°47' W 095°05'0 0.0
2015-May-14 03:33N 29°47' W 095°05'3 3.1
2015-May-14 02:31N 29°44' W 095°07'1 0.3
2015-May-13 23:25N 29°44' W 095°08'0 0.1
2015-May-13 21:24N 29°44' W 095°08'  
Track history (hours):
 
Tides and Currents Weather Stations Pressure Air Temp Water Temp Dewpoint Dewpoint Depression Visibility Wind Speed Wind Dir Waves Ship Positions

Aransas Pass

Owner: Higman Barge Lines, Inc., Orange, TX. More information available from US FCC via Universal Licensing System and Coast Guard Vessel Documentation Center.

Last reported at 2015-May-23 15:34 UTC. Time now 2015-May-23 16:29 UTC.
Position N 29°47' W 095°06'.

Length 26 m; draft 3 m.

Type: Towing. MMSI: 367458930.

Date/timePositionNaut miles runAvg speedWind from/ knotsBaromVisibWave heightAir tempDewpointWater temp
2015-May-23 15:34N 29°47' W 095°06'0 0.0
2015-May-23 14:33N 29°47' W 095°06'0 0.0
2015-May-23 13:34N 29°47' W 095°06'0 0.0
2015-May-23 12:28N 29°47' W 095°06'0 0.0
2015-May-23 11:33N 29°47' W 095°06'0 0.0
2015-May-23 10:32N 29°47' W 095°06'0 0.0
2015-May-23 09:32N 29°47' W 095°06'0 0.0
2015-May-23 08:17N 29°47' W 095°06'0 0.0
2015-May-23 07:27N 29°47' W 095°06'0 0.0
2015-May-23 06:29N 29°47' W 095°06'1 1.3
2015-May-23 05:34N 29°46' W 095°05'1 1.2
2015-May-23 04:31N 29°47' W 095°06'0 0.0
2015-May-23 03:33N 29°47' W 095°06'0 0.0
2015-May-23 02:31N 29°47' W 095°06'0 0.0
2015-May-23 01:22N 29°47' W 095°06'0 0.0
2015-May-23 00:29N 29°47' W 095°06'0 0.0
2015-May-22 23:14N 29°47' W 095°06'0 0.0
2015-May-22 22:29N 29°47' W 095°06'0 0.0
2015-May-22 21:32N 29°47' W 095°06'0 0.0
2015-May-22 20:25N 29°47' W 095°06'0 0.0
2015-May-22 19:31N 29°47' W 095°06'0 0.0
2015-May-22 18:28N 29°47' W 095°06'0 0.0
2015-May-22 17:17N 29°47' W 095°06'0 0.0
2015-May-22 16:29N 29°47' W 095°06'0 0.0
2015-May-22 15:21N 29°47' W 095°06'0 0.0
2015-May-22 14:18N 29°47' W 095°06'1 1.6
2015-May-22 13:33N 29°46' W 095°05'1 0.2
2015-May-22 08:33N 29°45' W 095°06'2 1.8
2015-May-22 07:33N 29°47' W 095°06'0 0.0
2015-May-22 06:33N 29°47' W 095°06'0 0.0
2015-May-22 05:32N 29°47' W 095°06'0 0.0
2015-May-22 04:33N 29°47' W 095°06'0 0.0
2015-May-22 03:32N 29°47' W 095°06'0 0.0
2015-May-22 02:33N 29°47' W 095°06'0 0.0
2015-May-22 01:33N 29°47' W 095°06'1 1.3
2015-May-22 00:33N 29°46' W 095°06'0 0.0
2015-May-21 23:33N 29°45' W 095°06'0 0.0
2015-May-21 22:33N 29°45' W 095°06'0 0.0
2015-May-21 21:33N 29°45' W 095°06'1 0.9
2015-May-21 20:20N 29°45' W 095°07'2 0.2
2015-May-21 09:06N 29°47' W 095°06'0 0.0
2015-May-21 08:32N 29°47' W 095°06'1 1.0
2015-May-21 07:33N 29°46' W 095°06'1 0.6
2015-May-21 06:33N 29°46' W 095°07'0 0.0
2015-May-21 05:33N 29°46' W 095°07'3 3.1
2015-May-21 04:33N 29°45' W 095°10'0 0.0
2015-May-21 03:33N 29°44' W 095°10'0 0.0
2015-May-21 02:33N 29°44' W 095°10'0 0.0
2015-May-21 01:33N 29°44' W 095°10'0 0.0
2015-May-21 00:33N 29°44' W 095°10'0 0.0
2015-May-20 23:33N 29°44' W 095°10'0 0.0
2015-May-20 22:33N 29°44' W 095°10'0 0.0
2015-May-20 21:33N 29°44' W 095°10'0 0.0
2015-May-20 20:33N 29°44' W 095°10'0 0.0
2015-May-20 19:33N 29°44' W 095°10'0 0.0
2015-May-20 18:33N 29°44' W 095°10'0 0.0
2015-May-20 17:33N 29°45' W 095°10'0 0.0
2015-May-20 16:33N 29°45' W 095°10'0 0.0
2015-May-20 15:33N 29°45' W 095°10'0 0.0
2015-May-20 14:33N 29°45' W 095°10'0 0.0
2015-May-20 13:33N 29°44' W 095°10'0 0.0
2015-May-20 12:33N 29°44' W 095°10'0 0.0
2015-May-20 11:33N 29°44' W 095°10'0 0.0
2015-May-20 10:33N 29°44' W 095°10'0 0.0
2015-May-20 09:33N 29°44' W 095°10'0 0.0
2015-May-20 08:33N 29°44' W 095°10'0 0.0
2015-May-20 07:33N 29°44' W 095°10'0 0.0
2015-May-20 06:33N 29°44' W 095°10'0 0.0
2015-May-20 05:33N 29°45' W 095°10'0 0.0
2015-May-20 04:33N 29°45' W 095°10'0 0.0
2015-May-20 03:33N 29°45' W 095°10'0 0.0
2015-May-20 02:33N 29°45' W 095°10'1 1.4
2015-May-20 01:33N 29°44' W 095°08'0 0.0
2015-May-20 00:33N 29°44' W 095°08'0 0.0
2015-May-19 23:33N 29°44' W 095°08'0 0.0
2015-May-19 22:33N 29°44' W 095°08'0 0.0
2015-May-19 21:33N 29°44' W 095°08'0 0.0
2015-May-19 20:33N 29°44' W 095°08'0 0.0
2015-May-19 19:33N 29°44' W 095°08'0 0.0
2015-May-19 18:33N 29°44' W 095°08'0 0.0
2015-May-19 17:33N 29°44' W 095°08'0 0.0
2015-May-19 16:33N 29°44' W 095°08'0 0.0
2015-May-19 15:33N 29°44' W 095°08'0 0.0
2015-May-19 14:33N 29°44' W 095°08'0 0.2
2015-May-19 13:34N 29°44' W 095°08'0 0.1
2015-May-19 12:33N 29°44' W 095°08'0 0.0
2015-May-19 11:33N 29°44' W 095°08'0 0.0
2015-May-19 10:33N 29°44' W 095°08'0 0.0
2015-May-19 09:33N 29°44' W 095°08'0 0.0
2015-May-19 08:33N 29°44' W 095°08'0 0.0
2015-May-19 07:33N 29°44' W 095°08'0 0.0
2015-May-19 06:33N 29°44' W 095°08'0 0.0
2015-May-19 05:33N 29°44' W 095°08'0 0.0
2015-May-19 04:33N 29°44' W 095°08'0 0.0
2015-May-19 03:33N 29°44' W 095°08'0 0.3
2015-May-19 02:33N 29°44' W 095°08'0 0.4
2015-May-19 01:33N 29°44' W 095°08'0 0.0
2015-May-19 00:33N 29°44' W 095°08'0 0.0
2015-May-18 23:33N 29°44' W 095°08'0 0.0
2015-May-18 22:33N 29°44' W 095°08'0 0.0
2015-May-18 21:33N 29°44' W 095°08'0 0.0
2015-May-18 20:33N 29°44' W 095°08'0 0.0
2015-May-18 19:33N 29°44' W 095°08'0 0.0
2015-May-18 18:33N 29°44' W 095°08'0 0.0
2015-May-18 17:33N 29°44' W 095°08'0 0.0
2015-May-18 16:33N 29°44' W 095°08'0 0.0
2015-May-18 15:33N 29°44' W 095°08'0 0.0
2015-May-18 14:33N 29°44' W 095°08'0 0.0
2015-May-18 13:33N 29°44' W 095°08'0 0.0
2015-May-18 12:33N 29°44' W 095°08'0 0.0
2015-May-18 11:33N 29°44' W 095°08'0 0.0
2015-May-18 10:33N 29°44' W 095°08'0 0.0
2015-May-18 09:33N 29°44' W 095°08'0 0.0
2015-May-18 08:33N 29°44' W 095°08'0 0.0
2015-May-18 07:33N 29°44' W 095°08'0 0.0
2015-May-18 06:33N 29°44' W 095°08'0 0.0
2015-May-18 05:33N 29°44' W 095°08'0 0.0
2015-May-18 04:33N 29°44' W 095°08'0 0.0
2015-May-18 03:33N 29°44' W 095°08'0 0.0
2015-May-18 02:33N 29°44' W 095°08'0 0.0
2015-May-18 01:33N 29°44' W 095°08'0 0.0
2015-May-18 00:33N 29°44' W 095°08'0 0.0
2015-May-17 23:33N 29°44' W 095°08'0 0.0
2015-May-17 22:33N 29°44' W 095°08'0 0.0
2015-May-17 21:33N 29°44' W 095°08'0 0.0
2015-May-17 20:33N 29°44' W 095°08'0 0.0
2015-May-17 19:33N 29°44' W 095°08'0 0.1
2015-May-17 18:33N 29°44' W 095°08'4 3.7
2015-May-17 17:33N 29°47' W 095°05'0 0.4
2015-May-17 16:33N 29°47' W 095°05'0 0.0
2015-May-17 15:33N 29°47' W 095°05'0 0.0
2015-May-17 14:34N 29°47' W 095°05'0 0.0
2015-May-17 13:33N 29°47' W 095°05'0 0.0
2015-May-17 12:33N 29°47' W 095°05'0 0.0
2015-May-17 11:33N 29°47' W 095°05'0 0.0
2015-May-17 10:33N 29°47' W 095°05'0 0.0
2015-May-17 09:33N 29°47' W 095°05'0 0.0
2015-May-17 08:33N 29°47' W 095°05'0 0.0
2015-May-17 07:33N 29°47' W 095°05'0 0.0
2015-May-17 06:33N 29°47' W 095°05'0 0.0
2015-May-17 05:33N 29°47' W 095°05'0 0.0
2015-May-17 04:33N 29°47' W 095°05'0 0.0
2015-May-17 03:33N 29°47' W 095°05'0 0.0
2015-May-17 02:33N 29°47' W 095°05'0 0.0
2015-May-17 01:33N 29°47' W 095°05'0 0.0
2015-May-17 00:33N 29°47' W 095°05'0 0.0
2015-May-16 23:33N 29°47' W 095°05'0 0.0
2015-May-16 22:33N 29°47' W 095°05'0 0.0
2015-May-16 21:33N 29°47' W 095°05'0 0.0
2015-May-16 20:33N 29°47' W 095°05'0 0.0
2015-May-16 19:33N 29°47' W 095°05'0 0.0
2015-May-16 18:33N 29°47' W 095°05'0 0.0
2015-May-16 17:33N 29°47' W 095°05'0 0.0
2015-May-16 16:33N 29°47' W 095°05'0 0.0
2015-May-16 15:33N 29°47' W 095°05'0 0.0
2015-May-16 14:33N 29°47' W 095°05'0 0.0
2015-May-16 13:33N 29°47' W 095°05'0 0.0
2015-May-16 12:33N 29°47' W 095°05'0 0.0
2015-May-16 11:33N 29°47' W 095°05'0 0.0
2015-May-16 10:33N 29°47' W 095°05'0 0.0
2015-May-16 09:33N 29°47' W 095°05'0 0.0
2015-May-16 08:33N 29°47' W 095°05'0 0.0
2015-May-16 07:33N 29°47' W 095°05'0 0.0
2015-May-16 06:33N 29°47' W 095°05'0 0.0
2015-May-16 05:33N 29°47' W 095°05'0 0.0
2015-May-16 04:33N 29°47' W 095°05'0 0.0
2015-May-16 03:33N 29°47' W 095°05'0 0.0
2015-May-16 02:33N 29°47' W 095°05'0 0.0
2015-May-16 01:33N 29°47' W 095°05'0 0.0
2015-May-16 00:33N 29°47' W 095°05'0 0.0
2015-May-15 23:33N 29°47' W 095°05'0 0.0
2015-May-15 22:33N 29°47' W 095°05'0 0.0
2015-May-15 21:33N 29°47' W 095°05'0 0.0
2015-May-15 20:33N 29°47' W 095°05'0 0.0
2015-May-15 19:33N 29°47' W 095°05'0 0.0
2015-May-15 18:33N 29°47' W 095°05'0 0.0
2015-May-15 17:33N 29°47' W 095°05'0 0.0
2015-May-15 16:33N 29°47' W 095°05'0 0.0
2015-May-15 15:33N 29°47' W 095°05'0 0.0
2015-May-15 14:33N 29°47' W 095°05'0 0.0
2015-May-15 13:33N 29°47' W 095°05'0 0.0
2015-May-15 12:33N 29°47' W 095°05'0 0.0
2015-May-15 11:28N 29°47' W 095°05'0 0.0
2015-May-15 10:31N 29°47' W 095°05'0 0.0
2015-May-15 09:33N 29°47' W 095°05'0 0.0
2015-May-15 08:31N 29°47' W 095°05'0 0.0
2015-May-15 07:31N 29°47' W 095°05'0 0.0
2015-May-15 06:29N 29°47' W 095°05'0 0.0
2015-May-15 05:30N 29°47' W 095°05'0 0.0
2015-May-15 04:31N 29°47' W 095°05'0 0.0
2015-May-15 03:33N 29°47' W 095°05'0 0.0
2015-May-15 02:33N 29°47' W 095°05'0 0.0
2015-May-15 01:26N 29°47' W 095°05'0 0.0
2015-May-15 00:32N 29°47' W 095°05'0 0.0
2015-May-14 23:33N 29°47' W 095°05'0 0.0
2015-May-14 22:32N 29°47' W 095°05'0 0.0
2015-May-14 21:33N 29°47' W 095°05'0 0.0
2015-May-14 20:33N 29°47' W 095°05'0 0.0
2015-May-14 19:11N 29°47' W 095°05'0 0.0
2015-May-14 18:32N 29°47' W 095°05'0 0.0
2015-May-14 17:24N 29°47' W 095°05'0 0.0
2015-May-14 16:21N 29°47' W 095°05'0 0.0
2015-May-14 15:31N 29°47' W 095°05'0 0.3
2015-May-14 14:33N 29°47' W 095°05'1 0.6
2015-May-14 13:32N 29°46' W 095°05'1 0.8
2015-May-14 12:31N 29°47' W 095°05'0 0.0
2015-May-14 11:30N 29°47' W 095°05'0 0.0
2015-May-14 10:33N 29°47' W 095°05'0 0.0
2015-May-14 09:33N 29°47' W 095°05'0 0.0
2015-May-14 08:32N 29°47' W 095°05'0 0.0
2015-May-14 07:32N 29°47' W 095°05'0 0.0
2015-May-14 06:33N 29°47' W 095°05'0 0.0
2015-May-14 05:27N 29°47' W 095°05'0 0.0
2015-May-14 04:33N 29°47' W 095°05'0 0.0
2015-May-14 03:33N 29°47' W 095°05'3 3.1
2015-May-14 02:31N 29°44' W 095°07'1 0.3
2015-May-13 23:25N 29°44' W 095°08'0 0.1
2015-May-13 21:24N 29°44' W 095°08'  

Dump ship's entire track history